sensor_id;sensor_type;location;lat;lon;timestamp;P1;durP1;ratioP1;P2;durP2;ratioP2
8100;SDS011;4093;53.470;9.832;2023-02-20T00:01:21;8.83;;;4.17;;
8100;SDS011;4093;53.470;9.832;2023-02-20T00:03:51;4.60;;;3.20;;
8100;SDS011;4093;53.470;9.832;2023-02-20T00:06:19;7.27;;;3.90;;
8100;SDS011;4093;53.470;9.832;2023-02-20T00:08:46;6.37;;;4.50;;
8100;SDS011;4093;53.470;9.832;2023-02-20T00:11:14;11.77;;;3.67;;
8100;SDS011;4093;53.470;9.832;2023-02-20T00:13:43;8.77;;;3.90;;
8100;SDS011;4093;53.470;9.832;2023-02-20T00:16:11;7.23;;;4.30;;
8100;SDS011;4093;53.470;9.832;2023-02-20T00:18:39;4.80;;;3.40;;
8100;SDS011;4093;53.470;9.832;2023-02-20T00:21:08;7.30;;;3.73;;
8100;SDS011;4093;53.470;9.832;2023-02-20T00:23:36;5.60;;;3.53;;
8100;SDS011;4093;53.470;9.832;2023-02-20T00:26:07;7.17;;;3.70;;
8100;SDS011;4093;53.470;9.832;2023-02-20T00:28:36;6.27;;;3.30;;
8100;SDS011;4093;53.470;9.832;2023-02-20T00:31:04;4.97;;;3.23;;
8100;SDS011;4093;53.470;9.832;2023-02-20T00:33:32;10.23;;;4.03;;
8100;SDS011;4093;53.470;9.832;2023-02-20T00:36:01;5.90;;;3.70;;
8100;SDS011;4093;53.470;9.832;2023-02-20T00:38:31;6.37;;;3.73;;
8100;SDS011;4093;53.470;9.832;2023-02-20T00:40:59;8.57;;;4.00;;
8100;SDS011;4093;53.470;9.832;2023-02-20T00:43:26;6.70;;;3.70;;
8100;SDS011;4093;53.470;9.832;2023-02-20T00:45:54;4.33;;;3.33;;
8100;SDS011;4093;53.470;9.832;2023-02-20T00:48:22;7.53;;;3.50;;
8100;SDS011;4093;53.470;9.832;2023-02-20T00:50:49;8.60;;;3.87;;
8100;SDS011;4093;53.470;9.832;2023-02-20T00:53:19;7.93;;;3.53;;
8100;SDS011;4093;53.470;9.832;2023-02-20T00:55:48;6.10;;;3.10;;
8100;SDS011;4093;53.470;9.832;2023-02-20T00:58:16;5.83;;;3.33;;
8100;SDS011;4093;53.470;9.832;2023-02-20T01:00:44;7.53;;;3.47;;
8100;SDS011;4093;53.470;9.832;2023-02-20T01:03:13;5.33;;;3.67;;
8100;SDS011;4093;53.470;9.832;2023-02-20T01:05:41;5.13;;;3.37;;
8100;SDS011;4093;53.470;9.832;2023-02-20T01:08:09;8.20;;;3.40;;
8100;SDS011;4093;53.470;9.832;2023-02-20T01:10:36;8.83;;;4.00;;
8100;SDS011;4093;53.470;9.832;2023-02-20T01:13:06;7.93;;;3.70;;
8100;SDS011;4093;53.470;9.832;2023-02-20T01:15:33;10.73;;;3.73;;
8100;SDS011;4093;53.470;9.832;2023-02-20T01:18:01;9.03;;;3.40;;
8100;SDS011;4093;53.470;9.832;2023-02-20T01:20:30;4.93;;;3.50;;
8100;SDS011;4093;53.470;9.832;2023-02-20T01:22:58;7.30;;;3.50;;
8100;SDS011;4093;53.470;9.832;2023-02-20T01:25:26;8.50;;;3.80;;
8100;SDS011;4093;53.470;9.832;2023-02-20T01:27:54;6.10;;;3.87;;
8100;SDS011;4093;53.470;9.832;2023-02-20T01:30:23;7.37;;;4.27;;
8100;SDS011;4093;53.470;9.832;2023-02-20T01:32:52;6.30;;;3.70;;
8100;SDS011;4093;53.470;9.832;2023-02-20T01:35:20;10.33;;;4.17;;
8100;SDS011;4093;53.470;9.832;2023-02-20T01:37:49;7.60;;;4.03;;
8100;SDS011;4093;53.470;9.832;2023-02-20T01:40:17;6.20;;;4.40;;
8100;SDS011;4093;53.470;9.832;2023-02-20T01:42:46;8.03;;;4.53;;
8100;SDS011;4093;53.470;9.832;2023-02-20T01:45:15;6.87;;;4.27;;
8100;SDS011;4093;53.470;9.832;2023-02-20T01:47:48;8.23;;;4.57;;
8100;SDS011;4093;53.470;9.832;2023-02-20T01:50:17;6.73;;;4.17;;
8100;SDS011;4093;53.470;9.832;2023-02-20T01:52:47;7.83;;;4.67;;
8100;SDS011;4093;53.470;9.832;2023-02-20T01:55:19;8.20;;;4.40;;
8100;SDS011;4093;53.470;9.832;2023-02-20T01:57:51;5.13;;;4.07;;
8100;SDS011;4093;53.470;9.832;2023-02-20T02:00:21;7.10;;;4.47;;
8100;SDS011;4093;53.470;9.832;2023-02-20T02:02:56;6.60;;;4.03;;
8100;SDS011;4093;53.470;9.832;2023-02-20T02:05:29;7.90;;;4.23;;
8100;SDS011;4093;53.470;9.832;2023-02-20T02:07:58;6.87;;;4.10;;
8100;SDS011;4093;53.470;9.832;2023-02-20T02:10:28;8.53;;;4.17;;
8100;SDS011;4093;53.470;9.832;2023-02-20T02:13:02;7.40;;;4.20;;
8100;SDS011;4093;53.470;9.832;2023-02-20T02:15:29;7.37;;;4.47;;
8100;SDS011;4093;53.470;9.832;2023-02-20T02:18:02;6.00;;;4.43;;
8100;SDS011;4093;53.470;9.832;2023-02-20T02:20:54;5.67;;;4.30;;
8100;SDS011;4093;53.470;9.832;2023-02-20T02:23:59;6.20;;;4.43;;
8100;SDS011;4093;53.470;9.832;2023-02-20T02:26:54;6.13;;;4.50;;
8100;SDS011;4093;53.470;9.832;2023-02-20T02:29:40;8.23;;;4.70;;
8100;SDS011;4093;53.470;9.832;2023-02-20T02:38:53;5.80;;;4.70;;
8100;SDS011;4093;53.470;9.832;2023-02-20T02:41:29;6.03;;;4.53;;
8100;SDS011;4093;53.470;9.832;2023-02-20T02:44:07;6.80;;;5.07;;
8100;SDS011;4093;53.470;9.832;2023-02-20T02:46:39;8.20;;;4.67;;
8100;SDS011;4093;53.470;9.832;2023-02-20T02:49:12;8.00;;;4.93;;
8100;SDS011;4093;53.470;9.832;2023-02-20T02:51:47;6.63;;;5.30;;
8100;SDS011;4093;53.470;9.832;2023-02-20T02:54:17;7.70;;;4.80;;
8100;SDS011;4093;53.470;9.832;2023-02-20T02:56:51;7.23;;;5.27;;
8100;SDS011;4093;53.470;9.832;2023-02-20T02:59:22;7.07;;;5.83;;
8100;SDS011;4093;53.470;9.832;2023-02-20T03:01:54;8.73;;;5.80;;
8100;SDS011;4093;53.470;9.832;2023-02-20T03:04:27;8.53;;;5.87;;
8100;SDS011;4093;53.470;9.832;2023-02-20T03:07:01;11.10;;;6.00;;
8100;SDS011;4093;53.470;9.832;2023-02-20T03:09:35;7.47;;;5.83;;
8100;SDS011;4093;53.470;9.832;2023-02-20T03:12:05;9.50;;;6.57;;
8100;SDS011;4093;53.470;9.832;2023-02-20T03:14:36;8.70;;;6.17;;
8100;SDS011;4093;53.470;9.832;2023-02-20T03:17:27;8.80;;;5.90;;
8100;SDS011;4093;53.470;9.832;2023-02-20T03:19:58;8.87;;;6.57;;
8100;SDS011;4093;53.470;9.832;2023-02-20T03:22:31;8.87;;;5.90;;
8100;SDS011;4093;53.470;9.832;2023-02-20T03:25:03;7.90;;;5.93;;
8100;SDS011;4093;53.470;9.832;2023-02-20T03:27:36;9.43;;;6.17;;
8100;SDS011;4093;53.470;9.832;2023-02-20T03:30:09;8.67;;;5.10;;
8100;SDS011;4093;53.470;9.832;2023-02-20T03:32:42;10.57;;;6.60;;
8100;SDS011;4093;53.470;9.832;2023-02-20T03:35:31;9.03;;;6.20;;
8100;SDS011;4093;53.470;9.832;2023-02-20T03:38:21;9.90;;;5.70;;
8100;SDS011;4093;53.470;9.832;2023-02-20T03:41:08;9.10;;;6.20;;
8100;SDS011;4093;53.470;9.832;2023-02-20T03:43:56;6.90;;;5.70;;
8100;SDS011;4093;53.470;9.832;2023-02-20T03:46:26;7.83;;;5.90;;
8100;SDS011;4093;53.470;9.832;2023-02-20T03:49:01;7.10;;;5.97;;
8100;SDS011;4093;53.470;9.832;2023-02-20T03:51:32;8.07;;;5.90;;
8100;SDS011;4093;53.470;9.832;2023-02-20T03:54:18;7.80;;;5.90;;
8100;SDS011;4093;53.470;9.832;2023-02-20T03:56:46;8.53;;;6.50;;
8100;SDS011;4093;53.470;9.832;2023-02-20T03:59:19;10.00;;;6.53;;
8100;SDS011;4093;53.470;9.832;2023-02-20T04:01:50;7.50;;;6.33;;
8100;SDS011;4093;53.470;9.832;2023-02-20T04:04:22;9.40;;;6.70;;
8100;SDS011;4093;53.470;9.832;2023-02-20T04:06:52;8.60;;;6.43;;
8100;SDS011;4093;53.470;9.832;2023-02-20T04:09:25;8.87;;;6.70;;
8100;SDS011;4093;53.470;9.832;2023-02-20T04:11:57;8.10;;;6.57;;
8100;SDS011;4093;53.470;9.832;2023-02-20T04:14:30;8.67;;;7.50;;
8100;SDS011;4093;53.470;9.832;2023-02-20T04:16:59;10.10;;;7.90;;
8100;SDS011;4093;53.470;9.832;2023-02-20T04:19:32;9.57;;;7.17;;
8100;SDS011;4093;53.470;9.832;2023-02-20T04:22:00;11.93;;;7.30;;
8100;SDS011;4093;53.470;9.832;2023-02-20T04:24:32;8.83;;;7.17;;
8100;SDS011;4093;53.470;9.832;2023-02-20T04:27:04;12.77;;;7.20;;
8100;SDS011;4093;53.470;9.832;2023-02-20T04:29:32;9.40;;;7.30;;
8100;SDS011;4093;53.470;9.832;2023-02-20T04:32:00;10.57;;;7.40;;
8100;SDS011;4093;53.470;9.832;2023-02-20T04:34:28;11.10;;;7.43;;
8100;SDS011;4093;53.470;9.832;2023-02-20T04:36:59;10.43;;;7.97;;
8100;SDS011;4093;53.470;9.832;2023-02-20T04:39:33;8.60;;;7.03;;
8100;SDS011;4093;53.470;9.832;2023-02-20T04:42:01;13.27;;;7.73;;
8100;SDS011;4093;53.470;9.832;2023-02-20T04:44:29;13.93;;;8.37;;
8100;SDS011;4093;53.470;9.832;2023-02-20T04:47:01;14.13;;;9.33;;
8100;SDS011;4093;53.470;9.832;2023-02-20T04:49:30;13.13;;;8.27;;
8100;SDS011;4093;53.470;9.832;2023-02-20T04:51:58;13.93;;;8.50;;
8100;SDS011;4093;53.470;9.832;2023-02-20T04:54:26;11.63;;;8.70;;
8100;SDS011;4093;53.470;9.832;2023-02-20T04:56:55;11.53;;;8.57;;
8100;SDS011;4093;53.470;9.832;2023-02-20T04:59:22;12.00;;;8.80;;
8100;SDS011;4093;53.470;9.832;2023-02-20T05:01:50;14.13;;;9.20;;
8100;SDS011;4093;53.470;9.832;2023-02-20T05:04:20;12.40;;;8.83;;
8100;SDS011;4093;53.470;9.832;2023-02-20T05:06:50;13.03;;;8.73;;
8100;SDS011;4093;53.470;9.832;2023-02-20T05:09:19;12.20;;;8.77;;
8100;SDS011;4093;53.470;9.832;2023-02-20T05:11:47;13.47;;;9.77;;
8100;SDS011;4093;53.470;9.832;2023-02-20T05:14:17;12.50;;;9.30;;
8100;SDS011;4093;53.470;9.832;2023-02-20T05:16:45;14.40;;;9.50;;
8100;SDS011;4093;53.470;9.832;2023-02-20T05:19:14;13.13;;;10.50;;
8100;SDS011;4093;53.470;9.832;2023-02-20T05:21:42;16.87;;;10.07;;
8100;SDS011;4093;53.470;9.832;2023-02-20T05:24:27;13.07;;;9.33;;
8100;SDS011;4093;53.470;9.832;2023-02-20T05:26:57;13.17;;;10.47;;
8100;SDS011;4093;53.470;9.832;2023-02-20T05:29:26;14.33;;;10.30;;
8100;SDS011;4093;53.470;9.832;2023-02-20T05:31:54;14.77;;;10.07;;
8100;SDS011;4093;53.470;9.832;2023-02-20T05:34:22;15.00;;;9.67;;
8100;SDS011;4093;53.470;9.832;2023-02-20T05:36:51;16.07;;;10.60;;
8100;SDS011;4093;53.470;9.832;2023-02-20T05:39:19;16.00;;;10.87;;
8100;SDS011;4093;53.470;9.832;2023-02-20T05:41:47;12.53;;;9.67;;
8100;SDS011;4093;53.470;9.832;2023-02-20T05:44:15;15.67;;;10.87;;
8100;SDS011;4093;53.470;9.832;2023-02-20T05:46:44;16.27;;;11.03;;
8100;SDS011;4093;53.470;9.832;2023-02-20T05:49:12;15.70;;;11.47;;
8100;SDS011;4093;53.470;9.832;2023-02-20T05:51:40;16.40;;;11.63;;
8100;SDS011;4093;53.470;9.832;2023-02-20T05:54:08;19.07;;;11.33;;
8100;SDS011;4093;53.470;9.832;2023-02-20T05:56:39;17.23;;;11.67;;
8100;SDS011;4093;53.470;9.832;2023-02-20T05:59:08;17.27;;;10.90;;
8100;SDS011;4093;53.470;9.832;2023-02-20T06:01:35;14.83;;;11.10;;
8100;SDS011;4093;53.470;9.832;2023-02-20T06:04:05;20.60;;;12.20;;
8100;SDS011;4093;53.470;9.832;2023-02-20T06:06:33;16.60;;;11.00;;
8100;SDS011;4093;53.470;9.832;2023-02-20T06:09:03;18.40;;;11.83;;
8100;SDS011;4093;53.470;9.832;2023-02-20T06:11:33;16.23;;;11.47;;
8100;SDS011;4093;53.470;9.832;2023-02-20T06:14:01;15.73;;;12.00;;
8100;SDS011;4093;53.470;9.832;2023-02-20T06:16:31;21.63;;;12.90;;
8100;SDS011;4093;53.470;9.832;2023-02-20T06:19:01;20.00;;;12.57;;
8100;SDS011;4093;53.470;9.832;2023-02-20T06:21:31;16.50;;;11.80;;
8100;SDS011;4093;53.470;9.832;2023-02-20T06:24:01;20.43;;;14.87;;
8100;SDS011;4093;53.470;9.832;2023-02-20T06:26:28;20.67;;;13.47;;
8100;SDS011;4093;53.470;9.832;2023-02-20T06:28:56;19.63;;;13.00;;
8100;SDS011;4093;53.470;9.832;2023-02-20T06:31:24;20.63;;;14.07;;
8100;SDS011;4093;53.470;9.832;2023-02-20T06:33:53;22.23;;;13.23;;
8100;SDS011;4093;53.470;9.832;2023-02-20T06:36:22;19.73;;;13.20;;
8100;SDS011;4093;53.470;9.832;2023-02-20T06:38:52;19.37;;;13.23;;
8100;SDS011;4093;53.470;9.832;2023-02-20T06:41:23;17.77;;;13.43;;
8100;SDS011;4093;53.470;9.832;2023-02-20T06:43:51;20.83;;;13.27;;
8100;SDS011;4093;53.470;9.832;2023-02-20T06:46:18;21.27;;;13.70;;
8100;SDS011;4093;53.470;9.832;2023-02-20T06:48:49;22.43;;;14.50;;
8100;SDS011;4093;53.470;9.832;2023-02-20T06:51:18;22.00;;;14.07;;
8100;SDS011;4093;53.470;9.832;2023-02-20T06:53:47;26.13;;;17.00;;
8100;SDS011;4093;53.470;9.832;2023-02-20T06:56:17;27.33;;;15.03;;
8100;SDS011;4093;53.470;9.832;2023-02-20T06:58:47;27.47;;;16.50;;
8100;SDS011;4093;53.470;9.832;2023-02-20T07:01:16;23.27;;;17.80;;
8100;SDS011;4093;53.470;9.832;2023-02-20T07:03:46;23.07;;;15.60;;
8100;SDS011;4093;53.470;9.832;2023-02-20T07:06:17;23.67;;;16.10;;
8100;SDS011;4093;53.470;9.832;2023-02-20T07:08:44;21.70;;;17.40;;
8100;SDS011;4093;53.470;9.832;2023-02-20T07:11:12;25.47;;;16.70;;
8100;SDS011;4093;53.470;9.832;2023-02-20T07:13:44;23.43;;;15.60;;
8100;SDS011;4093;53.470;9.832;2023-02-20T07:16:12;25.70;;;17.53;;
8100;SDS011;4093;53.470;9.832;2023-02-20T07:18:40;27.20;;;18.17;;
8100;SDS011;4093;53.470;9.832;2023-02-20T07:21:08;24.77;;;17.63;;
8100;SDS011;4093;53.470;9.832;2023-02-20T07:23:36;24.93;;;17.73;;
8100;SDS011;4093;53.470;9.832;2023-02-20T07:26:04;24.80;;;18.37;;
8100;SDS011;4093;53.470;9.832;2023-02-20T07:28:32;26.10;;;18.53;;
8100;SDS011;4093;53.470;9.832;2023-02-20T07:31:02;23.57;;;17.00;;
8100;SDS011;4093;53.470;9.832;2023-02-20T07:33:30;26.57;;;18.13;;
8100;SDS011;4093;53.470;9.832;2023-02-20T07:35:58;27.97;;;19.47;;
8100;SDS011;4093;53.470;9.832;2023-02-20T07:38:26;28.53;;;20.67;;
8100;SDS011;4093;53.470;9.832;2023-02-20T07:40:53;27.37;;;20.23;;
8100;SDS011;4093;53.470;9.832;2023-02-20T07:43:21;27.93;;;19.80;;
8100;SDS011;4093;53.470;9.832;2023-02-20T07:45:49;27.50;;;20.33;;
8100;SDS011;4093;53.470;9.832;2023-02-20T07:48:18;29.23;;;20.87;;
8100;SDS011;4093;53.470;9.832;2023-02-20T07:50:46;26.27;;;19.23;;
8100;SDS011;4093;53.470;9.832;2023-02-20T07:53:15;26.87;;;20.20;;
8100;SDS011;4093;53.470;9.832;2023-02-20T07:55:44;29.50;;;21.90;;
8100;SDS011;4093;53.470;9.832;2023-02-20T07:58:13;29.37;;;20.13;;
8100;SDS011;4093;53.470;9.832;2023-02-20T08:00:40;28.17;;;19.07;;
8100;SDS011;4093;53.470;9.832;2023-02-20T08:03:08;27.20;;;20.00;;
8100;SDS011;4093;53.470;9.832;2023-02-20T08:05:37;31.13;;;20.03;;
8100;SDS011;4093;53.470;9.832;2023-02-20T08:08:14;27.90;;;19.87;;
8100;SDS011;4093;53.470;9.832;2023-02-20T08:10:41;34.67;;;20.33;;
8100;SDS011;4093;53.470;9.832;2023-02-20T08:13:09;29.73;;;21.17;;
8100;SDS011;4093;53.470;9.832;2023-02-20T08:15:37;28.27;;;20.77;;
8100;SDS011;4093;53.470;9.832;2023-02-20T08:18:06;29.23;;;20.53;;
8100;SDS011;4093;53.470;9.832;2023-02-20T08:20:48;30.63;;;20.70;;
8100;SDS011;4093;53.470;9.832;2023-02-20T08:23:18;32.43;;;21.90;;
8100;SDS011;4093;53.470;9.832;2023-02-20T08:25:47;31.67;;;21.03;;
8100;SDS011;4093;53.470;9.832;2023-02-20T08:28:15;34.63;;;21.97;;
8100;SDS011;4093;53.470;9.832;2023-02-20T08:30:42;32.60;;;20.97;;
8100;SDS011;4093;53.470;9.832;2023-02-20T08:33:11;36.60;;;21.50;;
8100;SDS011;4093;53.470;9.832;2023-02-20T08:35:40;31.30;;;20.47;;
8100;SDS011;4093;53.470;9.832;2023-02-20T08:38:22;32.77;;;20.57;;
8100;SDS011;4093;53.470;9.832;2023-02-20T08:40:51;35.67;;;22.07;;
8100;SDS011;4093;53.470;9.832;2023-02-20T08:43:19;35.17;;;22.40;;
8100;SDS011;4093;53.470;9.832;2023-02-20T08:45:47;35.70;;;24.07;;
8100;SDS011;4093;53.470;9.832;2023-02-20T08:48:14;30.50;;;21.90;;
8100;SDS011;4093;53.470;9.832;2023-02-20T08:50:42;37.10;;;23.53;;
8100;SDS011;4093;53.470;9.832;2023-02-20T08:53:12;34.23;;;21.87;;
8100;SDS011;4093;53.470;9.832;2023-02-20T08:55:41;33.17;;;20.87;;
8100;SDS011;4093;53.470;9.832;2023-02-20T08:58:09;30.10;;;21.40;;
8100;SDS011;4093;53.470;9.832;2023-02-20T09:00:37;31.50;;;21.40;;
8100;SDS011;4093;53.470;9.832;2023-02-20T09:03:05;35.93;;;21.77;;
8100;SDS011;4093;53.470;9.832;2023-02-20T09:05:34;36.63;;;21.63;;
8100;SDS011;4093;53.470;9.832;2023-02-20T09:08:04;39.40;;;22.03;;
8100;SDS011;4093;53.470;9.832;2023-02-20T09:10:32;37.50;;;23.20;;
8100;SDS011;4093;53.470;9.832;2023-02-20T09:13:02;40.10;;;23.00;;
8100;SDS011;4093;53.470;9.832;2023-02-20T09:15:29;35.13;;;22.50;;
8100;SDS011;4093;53.470;9.832;2023-02-20T09:18:05;37.70;;;22.87;;
8100;SDS011;4093;53.470;9.832;2023-02-20T09:20:34;41.60;;;23.03;;
8100;SDS011;4093;53.470;9.832;2023-02-20T09:23:04;35.40;;;22.03;;
8100;SDS011;4093;53.470;9.832;2023-02-20T09:25:32;34.43;;;21.37;;
8100;SDS011;4093;53.470;9.832;2023-02-20T09:28:02;40.13;;;23.07;;
8100;SDS011;4093;53.470;9.832;2023-02-20T09:30:30;39.10;;;23.30;;
8100;SDS011;4093;53.470;9.832;2023-02-20T09:32:59;43.40;;;25.00;;
8100;SDS011;4093;53.470;9.832;2023-02-20T09:35:27;41.30;;;24.27;;
8100;SDS011;4093;53.470;9.832;2023-02-20T09:37:57;40.30;;;25.63;;
8100;SDS011;4093;53.470;9.832;2023-02-20T09:40:26;51.80;;;23.90;;
8100;SDS011;4093;53.470;9.832;2023-02-20T09:43:08;41.47;;;23.40;;
8100;SDS011;4093;53.470;9.832;2023-02-20T09:45:46;37.40;;;21.77;;
8100;SDS011;4093;53.470;9.832;2023-02-20T09:48:25;36.93;;;23.30;;
8100;SDS011;4093;53.470;9.832;2023-02-20T09:51:04;39.87;;;23.07;;
8100;SDS011;4093;53.470;9.832;2023-02-20T09:53:38;41.87;;;22.30;;
8100;SDS011;4093;53.470;9.832;2023-02-20T09:56:15;39.33;;;23.83;;
8100;SDS011;4093;53.470;9.832;2023-02-20T09:58:49;40.23;;;25.13;;
8100;SDS011;4093;53.470;9.832;2023-02-20T10:01:25;36.97;;;22.93;;
8100;SDS011;4093;53.470;9.832;2023-02-20T10:03:55;42.63;;;21.60;;
8100;SDS011;4093;53.470;9.832;2023-02-20T10:06:24;35.90;;;22.30;;
8100;SDS011;4093;53.470;9.832;2023-02-20T10:08:54;31.73;;;21.00;;
8100;SDS011;4093;53.470;9.832;2023-02-20T10:11:27;37.50;;;22.80;;
8100;SDS011;4093;53.470;9.832;2023-02-20T10:14:10;37.47;;;22.23;;
8100;SDS011;4093;53.470;9.832;2023-02-20T10:16:57;40.50;;;21.83;;
8100;SDS011;4093;53.470;9.832;2023-02-20T10:19:33;33.00;;;19.63;;
8100;SDS011;4093;53.470;9.832;2023-02-20T10:22:08;33.93;;;21.43;;
8100;SDS011;4093;53.470;9.832;2023-02-20T10:24:42;40.43;;;20.53;;
8100;SDS011;4093;53.470;9.832;2023-02-20T10:27:22;33.90;;;20.33;;
8100;SDS011;4093;53.470;9.832;2023-02-20T10:29:58;32.23;;;19.83;;
8100;SDS011;4093;53.470;9.832;2023-02-20T10:32:31;30.40;;;18.93;;
8100;SDS011;4093;53.470;9.832;2023-02-20T10:35:06;32.53;;;19.33;;
8100;SDS011;4093;53.470;9.832;2023-02-20T10:37:37;28.87;;;17.90;;
8100;SDS011;4093;53.470;9.832;2023-02-20T10:40:15;29.57;;;16.53;;
8100;SDS011;4093;53.470;9.832;2023-02-20T10:42:52;29.07;;;17.03;;
8100;SDS011;4093;53.470;9.832;2023-02-20T10:45:29;26.23;;;16.33;;
8100;SDS011;4093;53.470;9.832;2023-02-20T10:48:06;25.57;;;15.97;;
8100;SDS011;4093;53.470;9.832;2023-02-20T10:50:36;23.90;;;13.73;;
8100;SDS011;4093;53.470;9.832;2023-02-20T10:53:12;23.00;;;14.00;;
8100;SDS011;4093;53.470;9.832;2023-02-20T10:55:47;26.53;;;14.13;;
8100;SDS011;4093;53.470;9.832;2023-02-20T10:58:20;28.63;;;14.23;;
8100;SDS011;4093;53.470;9.832;2023-02-20T11:00:54;22.23;;;13.23;;
8100;SDS011;4093;53.470;9.832;2023-02-20T11:03:26;19.73;;;12.00;;
8100;SDS011;4093;53.470;9.832;2023-02-20T11:06:00;18.83;;;10.83;;
8100;SDS011;4093;53.470;9.832;2023-02-20T11:08:30;16.30;;;10.90;;
8100;SDS011;4093;53.470;9.832;2023-02-20T11:10:59;15.80;;;10.27;;
8100;SDS011;4093;53.470;9.832;2023-02-20T11:13:43;17.97;;;10.03;;
8100;SDS011;4093;53.470;9.832;2023-02-20T11:16:13;15.43;;;8.83;;
8100;SDS011;4093;53.470;9.832;2023-02-20T11:19:00;18.87;;;10.33;;
8100;SDS011;4093;53.470;9.832;2023-02-20T11:21:33;20.13;;;9.70;;
8100;SDS011;4093;53.470;9.832;2023-02-20T11:24:16;16.93;;;9.83;;
8100;SDS011;4093;53.470;9.832;2023-02-20T11:26:46;20.53;;;9.60;;
8100;SDS011;4093;53.470;9.832;2023-02-20T11:29:18;16.90;;;9.07;;
8100;SDS011;4093;53.470;9.832;2023-02-20T11:31:49;15.83;;;9.10;;
8100;SDS011;4093;53.470;9.832;2023-02-20T11:34:18;16.37;;;8.10;;
8100;SDS011;4093;53.470;9.832;2023-02-20T11:36:48;12.13;;;8.37;;
8100;SDS011;4093;53.470;9.832;2023-02-20T11:39:19;13.33;;;8.33;;
8100;SDS011;4093;53.470;9.832;2023-02-20T11:41:52;12.53;;;7.70;;
8100;SDS011;4093;53.470;9.832;2023-02-20T11:44:32;14.00;;;7.10;;
8100;SDS011;4093;53.470;9.832;2023-02-20T11:47:21;17.27;;;7.63;;
8100;SDS011;4093;53.470;9.832;2023-02-20T11:50:12;11.53;;;7.20;;
8100;SDS011;4093;53.470;9.832;2023-02-20T11:52:58;12.30;;;6.77;;
8100;SDS011;4093;53.470;9.832;2023-02-20T11:55:30;12.20;;;7.10;;
8100;SDS011;4093;53.470;9.832;2023-02-20T11:57:59;13.37;;;6.83;;
8100;SDS011;4093;53.470;9.832;2023-02-20T12:00:28;14.27;;;6.97;;
8100;SDS011;4093;53.470;9.832;2023-02-20T12:03:11;9.17;;;6.03;;
8100;SDS011;4093;53.470;9.832;2023-02-20T12:05:40;9.80;;;5.37;;
8100;SDS011;4093;53.470;9.832;2023-02-20T12:11:14;14.40;;;6.83;;
8100;SDS011;4093;53.470;9.832;2023-02-20T12:13:43;13.00;;;5.97;;
8100;SDS011;4093;53.470;9.832;2023-02-20T12:16:20;10.77;;;5.80;;
8100;SDS011;4093;53.470;9.832;2023-02-20T12:19:07;14.67;;;6.03;;
8100;SDS011;4093;53.470;9.832;2023-02-20T12:21:44;13.47;;;6.10;;
8100;SDS011;4093;53.470;9.832;2023-02-20T12:24:27;13.03;;;6.20;;
8100;SDS011;4093;53.470;9.832;2023-02-20T12:27:08;10.57;;;5.93;;
8100;SDS011;4093;53.470;9.832;2023-02-20T12:29:49;11.67;;;5.83;;
8100;SDS011;4093;53.470;9.832;2023-02-20T12:32:27;13.33;;;6.00;;
8100;SDS011;4093;53.470;9.832;2023-02-20T12:35:12;11.43;;;5.50;;
8100;SDS011;4093;53.470;9.832;2023-02-20T12:37:54;9.70;;;5.00;;
8100;SDS011;4093;53.470;9.832;2023-02-20T12:40:34;9.83;;;5.40;;
8100;SDS011;4093;53.470;9.832;2023-02-20T12:43:10;9.53;;;5.10;;
8100;SDS011;4093;53.470;9.832;2023-02-20T12:45:51;11.50;;;5.13;;
8100;SDS011;4093;53.470;9.832;2023-02-20T12:48:30;8.43;;;5.13;;
8100;SDS011;4093;53.470;9.832;2023-02-20T12:51:12;7.93;;;4.83;;
8100;SDS011;4093;53.470;9.832;2023-02-20T12:53:54;8.37;;;4.80;;
8100;SDS011;4093;53.470;9.832;2023-02-20T12:56:36;8.03;;;4.60;;
8100;SDS011;4093;53.470;9.832;2023-02-20T12:59:20;14.13;;;5.13;;
8100;SDS011;4093;53.470;9.832;2023-02-20T13:01:53;7.23;;;4.60;;
8100;SDS011;4093;53.470;9.832;2023-02-20T13:04:28;8.97;;;4.97;;
8100;SDS011;4093;53.470;9.832;2023-02-20T13:07:04;10.10;;;4.90;;
8100;SDS011;4093;53.470;9.832;2023-02-20T13:09:37;8.37;;;5.10;;
8100;SDS011;4093;53.470;9.832;2023-02-20T13:12:12;9.47;;;4.63;;
8100;SDS011;4093;53.470;9.832;2023-02-20T13:14:47;8.73;;;5.27;;
8100;SDS011;4093;53.470;9.832;2023-02-20T13:17:29;12.73;;;5.00;;
8100;SDS011;4093;53.470;9.832;2023-02-20T13:20:05;10.40;;;5.30;;
8100;SDS011;4093;53.470;9.832;2023-02-20T13:22:44;13.63;;;5.30;;
8100;SDS011;4093;53.470;9.832;2023-02-20T13:28:20;8.10;;;4.40;;
8100;SDS011;4093;53.470;9.832;2023-02-20T13:33:51;10.83;;;5.43;;
8100;SDS011;4093;53.470;9.832;2023-02-20T13:36:52;12.37;;;5.47;;
8100;SDS011;4093;53.470;9.832;2023-02-20T13:39:38;11.07;;;5.17;;
8100;SDS011;4093;53.470;9.832;2023-02-20T13:42:27;8.30;;;4.73;;
8100;SDS011;4093;53.470;9.832;2023-02-20T13:44:56;7.33;;;5.07;;
8100;SDS011;4093;53.470;9.832;2023-02-20T13:47:30;9.30;;;5.10;;
8100;SDS011;4093;53.470;9.832;2023-02-20T13:50:01;11.03;;;5.47;;
8100;SDS011;4093;53.470;9.832;2023-02-20T13:52:30;6.80;;;4.63;;
8100;SDS011;4093;53.470;9.832;2023-02-20T13:57:55;10.30;;;5.37;;
8100;SDS011;4093;53.470;9.832;2023-02-20T14:00:25;9.37;;;4.87;;
8100;SDS011;4093;53.470;9.832;2023-02-20T14:02:56;8.63;;;5.57;;
8100;SDS011;4093;53.470;9.832;2023-02-20T14:05:25;7.77;;;5.07;;
8100;SDS011;4093;53.470;9.832;2023-02-20T14:07:54;9.57;;;5.23;;
8100;SDS011;4093;53.470;9.832;2023-02-20T14:10:25;8.87;;;5.30;;
8100;SDS011;4093;53.470;9.832;2023-02-20T14:12:56;15.27;;;5.27;;
8100;SDS011;4093;53.470;9.832;2023-02-20T14:15:28;8.40;;;5.43;;
8100;SDS011;4093;53.470;9.832;2023-02-20T14:17:58;10.17;;;5.70;;
8100;SDS011;4093;53.470;9.832;2023-02-20T14:20:31;15.50;;;5.83;;
8100;SDS011;4093;53.470;9.832;2023-02-20T14:23:04;9.87;;;5.47;;
8100;SDS011;4093;53.470;9.832;2023-02-20T14:25:35;11.00;;;5.50;;
8100;SDS011;4093;53.470;9.832;2023-02-20T14:28:07;8.57;;;5.30;;
8100;SDS011;4093;53.470;9.832;2023-02-20T14:30:40;11.23;;;5.47;;
8100;SDS011;4093;53.470;9.832;2023-02-20T14:33:19;9.57;;;5.57;;
8100;SDS011;4093;53.470;9.832;2023-02-20T14:36:03;14.53;;;5.23;;
8100;SDS011;4093;53.470;9.832;2023-02-20T14:38:44;8.57;;;5.30;;
8100;SDS011;4093;53.470;9.832;2023-02-20T14:41:24;9.87;;;5.37;;
8100;SDS011;4093;53.470;9.832;2023-02-20T14:43:54;10.77;;;5.97;;
8100;SDS011;4093;53.470;9.832;2023-02-20T14:46:24;12.40;;;5.30;;
8100;SDS011;4093;53.470;9.832;2023-02-20T14:49:03;11.50;;;6.00;;
8100;SDS011;4093;53.470;9.832;2023-02-20T14:51:32;8.93;;;5.60;;
8100;SDS011;4093;53.470;9.832;2023-02-20T14:54:02;9.53;;;5.90;;
8100;SDS011;4093;53.470;9.832;2023-02-20T14:56:44;10.20;;;5.73;;
8100;SDS011;4093;53.470;9.832;2023-02-20T14:59:20;11.90;;;5.73;;
8100;SDS011;4093;53.470;9.832;2023-02-20T15:01:50;7.77;;;5.27;;
8100;SDS011;4093;53.470;9.832;2023-02-20T15:04:20;12.40;;;5.43;;
8100;SDS011;4093;53.470;9.832;2023-02-20T15:06:49;13.50;;;6.00;;
8100;SDS011;4093;53.470;9.832;2023-02-20T15:09:21;7.57;;;5.27;;
8100;SDS011;4093;53.470;9.832;2023-02-20T15:11:51;10.97;;;5.40;;
8100;SDS011;4093;53.470;9.832;2023-02-20T15:14:24;10.53;;;5.33;;
8100;SDS011;4093;53.470;9.832;2023-02-20T15:17:08;10.83;;;5.73;;
8100;SDS011;4093;53.470;9.832;2023-02-20T15:19:47;9.50;;;5.33;;
8100;SDS011;4093;53.470;9.832;2023-02-20T15:22:23;12.33;;;5.60;;
8100;SDS011;4093;53.470;9.832;2023-02-20T15:24:53;11.03;;;5.70;;
8100;SDS011;4093;53.470;9.832;2023-02-20T15:27:24;12.07;;;5.47;;
8100;SDS011;4093;53.470;9.832;2023-02-20T15:30:08;9.47;;;5.67;;
8100;SDS011;4093;53.470;9.832;2023-02-20T15:32:40;11.03;;;6.07;;
8100;SDS011;4093;53.470;9.832;2023-02-20T15:35:12;12.60;;;5.60;;
8100;SDS011;4093;53.470;9.832;2023-02-20T15:37:41;11.67;;;6.07;;
8100;SDS011;4093;53.470;9.832;2023-02-20T15:40:17;12.17;;;5.47;;
8100;SDS011;4093;53.470;9.832;2023-02-20T15:42:49;12.07;;;5.90;;
8100;SDS011;4093;53.470;9.832;2023-02-20T15:45:22;13.10;;;6.20;;
8100;SDS011;4093;53.470;9.832;2023-02-20T15:47:50;10.80;;;5.97;;
8100;SDS011;4093;53.470;9.832;2023-02-20T15:50:18;14.00;;;5.80;;